< < Back
Terminal Aerodrome Forecast


Current Version              Previous Versions:   1  2  3  4  5  6  7  8  9  

Terminal Aerodrome Forecast

954
FTUS42 KFFC 220500
TAFAHN
TAF
KAHN 220524Z 2206/2306 28002KT P6SM FEW250
      TEMPO 2209/2213 5SM BR FEW010
     FM221500 29005KT P6SM FEW040
     FM221700 31007KT P6SM SCT050
     FM230100 28004KT P6SM FEW070 SCT250=



Latest METAR

618
SAUS70 KWBC 220854
MTRAHN
METAR KAHN 220851Z AUTO 00000KT 10SM CLR 22/21 A3007 RMK AO2 SLP175
T02220211 56009


USA.gov is the U.S. government's official web portal to all federal, state and local government web resources and services.